ENMS/MJF METAR and TAF weather

Enter ICAO airport designator
Station Type Date Time Source
ENMS METAR 2021/08/04 19:50 UTC NOAA

ENMS 041950Z VRB02KT 9999 SCT060 12/07 Q1012 RMK WIND 412FT 22004KT


Station Type Date Time Source
ENMS Decoded METAR 2021/08/04 19:50 UTC NOAA

Mosjoen Kjaerstad, Norway (ENMS) 65-48N 013-08E
Aug 04, 2021 - 03:50 PM EDT / 2021.08.04 1950 UTC
Wind: Variable at 2 MPH (2 KT):0
Visibility: greater than 7 mile(s):0
Sky conditions: partly cloudy
Temperature: 53 F (12 C)
Dew Point: 44 F (7 C)
Relative Humidity: 71%
Pressure (altimeter): 29.88 in. Hg (1012 hPa)
ob: ENMS 041950Z VRB02KT 9999 SCT060 12/07 Q1012 RMK WIND 412FT 22004KT
cycle: 20

Station Type Date Time Source
ENMS TAF UTC NOAA

Error!

Example: see airport list